Karlovy, Czech Republic

7:02 PM CET on December 06, 2016 (GMT +0100)
Hornick√° | | Change Station

Elev 1955 ft 50.20 °N, 12.92 °E | Updated 3 minutes ago

Light Freezing Fog
Freezing Fog
23.9 °F
Feels Like 24 °F
N
0.6
Wind Variable Wind from East
Gusts 1.2 mph

Today
High -- | Low -- °F
--% Chance of Precip.
Yesterday
High -- | Low -- °F
Precip. -- in
Pressure 30.45 in
Visibility 0.2 miles
Clouds
Windchill 24 °F
Dew Point 23 °F
Humidity 96%
Rainfall 0.00 in
Snow Depth Not available.
7:52 AM 4:06 PM
Waxing Crescent, 43% visible
METAR EDQM 061750Z 00000KT 0300 R26/0650N FZFG VV/// M05/M07 Q1031
Pressure 30.45 in
Visibility 0.2 miles
Clouds
Windchill 24 °F
Dew Point 23 °F
Humidity 96%
Rainfall 0.00 in
Snow Depth Not available.
7:52 AM 4:06 PM
Waxing Crescent, 43% visible
METAR EDQM 061750Z 00000KT 0300 R26/0650N FZFG VV/// M05/M07 Q1031

10-Day Weather Forecast

×

Almanac

Astronomy

Dec. 06, 2016 Rise Set
Actual Time
Civil Twilight
Nautical Twilight
Astronomical Twilight
Moon
Length of Visible Light
Length of Day
Tomorrow will be .
, % of the Moon is Illuminated

Today's Extremes

Country Highs Country Lows

Community

WunderPhotos

Upload Photos

1,955,989 photos uploaded!

WunderBlog® & News

Nearby

Air Quality

  Air Quality AQ Index Pollutant
Not available.

Snow Depth

Station Depth Elevation

Earthquake Activity

City Distance Mag. Time & Date
Minimum magnitude displayed is 2.5.

Coastal Water Temperatures

Place Temperature

Stations

Nearby Weather Stations

Station Location Temp. Windchill Dew Point Humidity Wind Precip. Elev Updated Type